Terminal Aerodrome Forecast
Issued by NWS

Home | Current Version | Previous Version | Text Only | Print | Product List | Glossary Off
Versions: 1 2 3 4 5 6 7 8 9 10 11 12 13 14 15

000
FTUS45 KGGW 131700 RRA
TAFGDV
TAF
KGDV 131741Z 1318/1418 34013KT P6SM BKN060
     FM132300 33015KT P6SM VCSH BKN070
     FM140400 34007KT P6SM SCT060
      AMD LTD TO CLD VIS AND WIND=

USA.gov is the U.S. government's official web portal to all federal, state and local government web resources and services.